Terminal Aerodrome Forecast
Issued by NWS

Home | Current Version | Previous Version | Graphics & Text | Print | Product List | Glossary On
Versions: 1 2 3 4 5 6 7 8 9 10 11 12 13 14 15 16 17 18 19 20 21 22 23 24 25 26 27
000
FTUS43 KABR 190421 AAB
TAFATY
TAF AMD
KATY 190421Z 1904/1924 16008KT 1/2SM FZFG VV002
      TEMPO 1904/1908 1/4SM FZFG
     FM191500 18008KT 3SM BR OVC002
     FM191800 18009KT 4SM BR OVC004
     FM192100 18010KT 4SM BR OVC008=

USA.gov is the U.S. government's official web portal to all federal, state and local government web resources and services.